| time (UTC) | temp F | wind direction | speed MPH | gust MPH | rain 1hr in | rain 24hr in | rain mn in | humidity % | barometer mb |
| 20260507115012 | 48 | 81 | 3.0 | 9.0 | 0.00 | 0.45 | 0.44 | 89 | 1013.8 |
| 20260507114548 | 47 | 5 | 4.0 | 9.0 | 0.01 | 0.45 | 0.44 | 89 | 1013.8 |
| 20260507114006 | 47 | 35 | 2.0 | 8.0 | 0.01 | 0.45 | 0.44 | 89 | 1013.9 |
| 20260507113524 | 47 | 26 | 2.0 | 8.0 | 0.02 | 0.45 | 0.44 | 89 | 1013.9 |
| 20260507113044 | 47 | 13 | 3.0 | 8.0 | 0.02 | 0.45 | 0.44 | 89 | 1013.9 |
| 20260507112503 | 47 | 19 | 3.0 | 8.0 | 0.02 | 0.45 | 0.44 | 89 | 1013.8 |
| 20260507112025 | 47 | 360 | 3.0 | 8.0 | 0.02 | 0.45 | 0.44 | 89 | 1013.8 |
| 20260507111552 | 47 | 27 | 1.0 | 6.0 | 0.02 | 0.45 | 0.44 | 89 | 1013.7 |
| 20260507111008 | 47 | 32 | 1.0 | 7.0 | 0.02 | 0.45 | 0.44 | 89 | 1013.6 |
| 20260507110527 | 47 | 51 | 3.0 | 7.0 | 0.02 | 0.45 | 0.44 | 90 | 1013.6 |
| 20260507110044 | 47 | 355 | 3.0 | 5.0 | 0.02 | 0.45 | 0.44 | 90 | 1013.6 |
| 20260507105500 | 47 | 44 | 1.0 | 5.0 | 0.02 | 0.45 | 0.44 | 90 | 1013.6 |
| 20260507105030 | 46 | 24 | 2.0 | 6.0 | 0.03 | 0.45 | 0.44 | 90 | 1013.6 |
| 20260507104550 | 46 | 30 | 2.0 | 8.0 | 0.02 | 0.44 | 0.43 | 89 | 1013.7 |
| 20260507104006 | 46 | 57 | 2.0 | 7.0 | 0.02 | 0.44 | 0.43 | 90 | 1013.6 |
| 20260507103526 | 46 | 15 | 3.0 | 8.0 | 0.02 | 0.43 | 0.43 | 90 | 1013.4 |
| 20260507103043 | 46 | 22 | 3.0 | 7.0 | 0.02 | 0.43 | 0.43 | 90 | 1013.4 |
| 20260507102502 | 46 | 25 | 3.0 | 8.0 | 0.02 | 0.43 | 0.43 | 90 | 1013.4 |
| 20260507102017 | 46 | 69 | 3.0 | 9.0 | 0.02 | 0.43 | 0.43 | 90 | 1013.4 |
| 20260507101558 | 46 | 9 | 2.0 | 9.0 | 0.01 | 0.43 | 0.42 | 90 | 1013.5 |
| 20260507101002 | 46 | 24 | 2.0 | 6.0 | 0.01 | 0.43 | 0.42 | 90 | 1013.4 |
| 20260507100527 | 46 | 40 | 1.0 | 4.0 | 0.01 | 0.43 | 0.42 | 89 | 1013.3 |
| 20260507100047 | 46 | 16 | 1.0 | 5.0 | 0.01 | 0.43 | 0.42 | 89 | 1013.3 |
| 20260507095550 | 46 | 10 | 1.0 | 5.0 | 0.01 | 0.43 | 0.42 | 89 | 1013.3 |
| 20260507095006 | 46 | 49 | 0.0 | 5.0 | 0.00 | 0.42 | 0.41 | 89 | 1013.2 |
| 20260507094526 | 45 | 355 | 0.0 | 5.0 | 0.00 | 0.42 | 0.41 | 89 | 1013.1 |
| 20260507094046 | 45 | 29 | 2.0 | 5.0 | 0.00 | 0.42 | 0.41 | 89 | 1013.2 |
| 20260507093508 | 45 | 5 | 1.0 | 6.0 | 0.00 | 0.42 | 0.41 | 89 | 1013.1 |
| 20260507093039 | 46 | 22 | 2.0 | 8.0 | 0.00 | 0.42 | 0.41 | 89 | 1012.9 |
| 20260507092548 | 45 | 66 | 4.0 | 9.0 | 0.00 | 0.42 | 0.41 | 89 | 1012.9 |
| 20260507092004 | 45 | 36 | 5.0 | 10.0 | 0.00 | 0.42 | 0.41 | 88 | 1012.9 |
| 20260507091523 | 46 | 59 | 4.0 | 10.0 | 0.00 | 0.42 | 0.41 | 89 | 1012.7 |
| 20260507091041 | 46 | 71 | 2.0 | 6.0 | 0.00 | 0.42 | 0.41 | 89 | 1012.7 |
| 20260507090558 | 46 | 55 | 2.0 | 5.0 | 0.00 | 0.42 | 0.41 | 89 | 1012.6 |
| 20260507090016 | 46 | 30 | 1.0 | 6.0 | 0.00 | 0.42 | 0.41 | 89 | 1012.6 |
| 20260507085538 | 46 | 345 | 1.0 | 5.0 | 0.00 | 0.42 | 0.41 | 89 | 1012.5 |
| 20260507085055 | 45 | 58 | 1.0 | 5.0 | 0.00 | 0.42 | 0.41 | 89 | 1012.5 |
| 20260507084522 | 45 | 35 | 0.0 | 3.0 | 0.00 | 0.42 | 0.41 | 89 | 1012.4 |
| 20260507084040 | 45 | 50 | 0.0 | 6.0 | 0.00 | 0.42 | 0.41 | 89 | 1012.4 |
| 20260507083600 | 45 | 340 | 2.0 | 9.0 | 0.00 | 0.42 | 0.41 | 89 | 1012.4 |
| 20260507083021 | 45 | 69 | 4.0 | 8.0 | 0.00 | 0.42 | 0.41 | 90 | 1012.4 |
| 20260507082536 | 45 | 355 | 2.0 | 6.0 | 0.01 | 0.42 | 0.41 | 90 | 1012.4 |
| 20260507082056 | 45 | 5 | 0.0 | 5.0 | 0.01 | 0.42 | 0.41 | 90 | 1012.2 |
| 20260507081533 | 45 | 51 | 2.0 | 7.0 | 0.01 | 0.42 | 0.41 | 90 | 1012.2 |
| 20260507081041 | 45 | 38 | 3.0 | 8.0 | 0.02 | 0.42 | 0.41 | 90 | 1012.2 |
| 20260507080601 | 45 | 55 | 1.0 | 5.0 | 0.02 | 0.42 | 0.41 | 90 | 1012.1 |
| 20260507080021 | 45 | 47 | 2.0 | 6.0 | 0.02 | 0.42 | 0.41 | 90 | 1012.1 |
| 20260507075549 | 45 | 61 | 3.0 | 7.0 | 0.02 | 0.42 | 0.41 | 90 | 1012.1 |
| 20260507075005 | 45 | 20 | 3.0 | 6.0 | 0.03 | 0.42 | 0.41 | 90 | 1012.0 |
| 20260507074523 | 45 | 45 | 2.0 | 5.0 | 0.03 | 0.42 | 0.41 | 90 | 1012.0 |
| 20260507074043 | 45 | 37 | 1.0 | 7.0 | 0.03 | 0.42 | 0.41 | 90 | 1011.9 |
| 20260507073509 | 45 | 61 | 3.0 | 9.0 | 0.03 | 0.42 | 0.41 | 90 | 1011.8 |
| 20260507073027 | 45 | 42 | 4.0 | 9.0 | 0.03 | 0.42 | 0.41 | 90 | 1011.8 |
| 20260507072547 | 45 | 5 | 3.0 | 6.0 | 0.03 | 0.41 | 0.40 | 90 | 1011.7 |
| 20260507072004 | 45 | 44 | 2.0 | 5.0 | 0.03 | 0.41 | 0.40 | 90 | 1011.5 |
| 20260507071526 | 45 | 360 | 2.0 | 5.0 | 0.02 | 0.40 | 0.39 | 90 | 1011.4 |
| 20260507071040 | 45 | 44 | 1.0 | 5.0 | 0.02 | 0.40 | 0.39 | 90 | 1011.3 |
| 20260507070505 | 45 | 22 | 1.0 | 6.0 | 0.02 | 0.40 | 0.39 | 90 | 1011.3 |
| 20260507070022 | 45 | 64 | 2.0 | 6.0 | 0.02 | 0.39 | 0.39 | 90 | 1011.3 |
| 20260507065551 | 45 | 58 | 4.0 | 6.0 | 0.02 | 0.39 | 0.39 | 90 | 1011.2 |
| 20260507065008 | 45 | 54 | 3.0 | 8.0 | 0.01 | 0.39 | 0.38 | 90 | 1011.2 |
| 20260507064542 | 45 | 34 | 3.0 | 9.0 | 0.01 | 0.39 | 0.38 | 90 | 1011.0 |
| 20260507064056 | 45 | 26 | 1.0 | 9.0 | 0.01 | 0.39 | 0.38 | 90 | 1011.0 |
| 20260507063520 | 45 | 73 | 2.0 | 6.0 | 0.01 | 0.39 | 0.38 | 90 | 1011.0 |
| 20260507063037 | 45 | 18 | 3.0 | 5.0 | 0.01 | 0.39 | 0.38 | 90 | 1010.9 |
| 20260507062555 | 45 | 49 | 2.0 | 5.0 | 0.00 | 0.38 | 0.37 | 90 | 1010.8 |
| 20260507062023 | 45 | 35 | 1.0 | 6.0 | 0.00 | 0.38 | 0.37 | 90 | 1010.7 |
| 20260507061542 | 45 | 355 | 1.0 | 6.0 | 0.00 | 0.38 | 0.37 | 90 | 1010.7 |
| 20260507061100 | 45 | 12 | 2.0 | 8.0 | 0.00 | 0.38 | 0.37 | 90 | 1010.7 |
| 20260507060520 | 45 | 32 | 2.0 | 8.0 | 0.00 | 0.38 | 0.37 | 90 | 1010.6 |
| 20260507060038 | 45 | 348 | 2.0 | 6.0 | 0.00 | 0.38 | 0.37 | 90 | 1010.6 |
| 20260507055557 | 45 | 23 | 1.0 | 6.0 | 0.00 | 0.38 | 0.37 | 90 | 1010.6 |
| 20260507055022 | 45 | 38 | 2.0 | 8.0 | 0.00 | 0.38 | 0.37 | 90 | 1010.5 |
| 20260507054543 | 45 | 22 | 3.0 | 8.0 | 0.00 | 0.38 | 0.37 | 90 | 1010.4 |
| 20260507054100 | 45 | 19 | 0.0 | 4.0 | 0.00 | 0.38 | 0.37 | 90 | 1010.4 |
| 20260507053517 | 45 | 54 | 1.0 | 6.0 | 0.00 | 0.38 | 0.37 | 90 | 1010.3 |
| 20260507053037 | 45 | 324 | 0.0 | 5.0 | 0.00 | 0.38 | 0.37 | 90 | 1010.4 |
| 20260507052555 | 45 | 64 | 2.0 | 8.0 | 0.00 | 0.38 | 0.37 | 90 | 1010.3 |
| 20260507052021 | 45 | 345 | 3.0 | 8.0 | 0.00 | 0.38 | 0.37 | 90 | 1010.2 |
| 20260507051538 | 45 | 48 | 2.0 | 6.0 | 0.00 | 0.38 | 0.37 | 90 | 1010.2 |
| 20260507051046 | 46 | 13 | 3.0 | 6.0 | 0.00 | 0.38 | 0.37 | 91 | 1010.1 |
| 20260507050503 | 46 | 11 | 2.0 | 6.0 | 0.00 | 0.38 | 0.37 | 91 | 1010.0 |
| 20260507050038 | 46 | 76 | 3.0 | 8.0 | 0.00 | 0.38 | 0.37 | 90 | 1009.8 |
| 20260507045554 | 45 | 40 | 2.0 | 8.0 | 0.00 | 0.38 | 0.37 | 90 | 1009.8 |
| 20260507045018 | 45 | 55 | 3.0 | 6.0 | 0.00 | 0.38 | 0.37 | 90 | 1009.8 |
| 20260507044538 | 45 | 18 | 0.0 | 10.0 | 0.00 | 0.38 | 0.37 | 90 | 1009.7 |
| 20260507044056 | 45 | 80 | 2.0 | 10.0 | 0.00 | 0.38 | 0.37 | 90 | 1009.6 |
| 20260507043514 | 45 | 59 | 3.0 | 6.0 | 0.01 | 0.38 | 0.37 | 90 | 1009.6 |
| 20260507043041 | 45 | 61 | 3.0 | 8.0 | 0.01 | 0.38 | 0.37 | 90 | 1009.6 |
| 20260507042559 | 45 | 92 | 2.0 | 6.0 | 0.01 | 0.38 | 0.37 | 90 | 1009.5 |
| 20260507042026 | 45 | 40 | 3.0 | 6.0 | 0.01 | 0.38 | 0.37 | 90 | 1009.5 |
| 20260507041554 | 45 | 15 | 1.0 | 7.0 | 0.01 | 0.38 | 0.37 | 90 | 1009.4 |
| 20260507041012 | 45 | 55 | 3.0 | 7.0 | 0.02 | 0.38 | 0.37 | 90 | 1009.3 |
| 20260507040534 | 45 | 64 | 2.0 | 5.0 | 0.04 | 0.38 | 0.37 | 90 | 1009.2 |
| 20260507040055 | 45 | 32 | 2.0 | 8.0 | 0.06 | 0.38 | 0.37 | 90 | 1009.1 |
| 20260507035506 | 45 | 36 | 2.0 | 8.0 | 0.08 | 0.38 | 0.37 | 90 | 1009.0 |
| 20260507035022 | 45 | 21 | 1.0 | 8.0 | 0.10 | 0.38 | 0.37 | 90 | 1009.1 |
| 20260507034540 | 45 | 13 | 2.0 | 7.0 | 0.11 | 0.38 | 0.37 | 90 | 1009.1 |
| 20260507034058 | 45 | 40 | 2.0 | 6.0 | 0.13 | 0.38 | 0.37 | 90 | 1009.1 |
| 20260507033526 | 45 | 11 | 1.0 | 6.0 | 0.14 | 0.37 | 0.36 | 90 | 1009.1 |
| 20260507033046 | 45 | 355 | 1.0 | 4.0 | 0.16 | 0.37 | 0.36 | 90 | 1009.1 |
| 20260507032510 | 45 | 55 | 1.0 | 4.0 | 0.18 | 0.37 | 0.36 | 90 | 1009.1 |
| 20260507032029 | 45 | 38 | 1.0 | 6.0 | 0.20 | 0.37 | 0.36 | 90 | 1009.1 |
| 20260507031550 | 45 | 360 | 0.0 | 6.0 | 0.21 | 0.37 | 0.36 | 90 | 1008.9 |
| 20260507031007 | 45 | 23 | 1.0 | 4.0 | 0.21 | 0.35 | 0.35 | 90 | 1009.0 |
| 20260507030527 | 45 | 26 | 0.0 | 9.0 | 0.21 | 0.34 | 0.33 | 90 | 1009.0 |
| 20260507030045 | 45 | 19 | 3.0 | 9.0 | 0.21 | 0.31 | 0.31 | 89 | 1008.9 |
| 20260507025506 | 46 | 40 | 3.0 | 7.0 | 0.20 | 0.28 | 0.28 | 89 | 1008.8 |
| 20260507025032 | 46 | 57 | 3.0 | 6.0 | 0.20 | 0.28 | 0.27 | 89 | 1008.9 |
| 20260507024552 | 46 | 351 | 2.0 | 5.0 | 0.20 | 0.27 | 0.26 | 89 | 1009.0 |
| 20260507024011 | 46 | 30 | 1.0 | 9.0 | 0.20 | 0.25 | 0.24 | 89 | 1009.1 |
| 20260507023525 | 46 | 342 | 4.0 | 9.0 | 0.19 | 0.23 | 0.22 | 89 | 1009.2 |
| 20260507023054 | 46 | 323 | 2.0 | 9.0 | 0.18 | 0.21 | 0.20 | 89 | 1009.2 |
| 20260507022513 | 46 | 348 | 0.0 | 8.0 | 0.17 | 0.19 | 0.18 | 89 | 1009.1 |
| 20260507022041 | 46 | 331 | 2.0 | 8.0 | 0.15 | 0.17 | 0.17 | 89 | 1009.1 |
| 20260507021507 | 46 | 26 | 0.0 | 9.0 | 0.14 | 0.16 | 0.15 | 89 | 1009.0 |
| 20260507021023 | 46 | 5 | 3.0 | 9.0 | 0.13 | 0.14 | 0.13 | 89 | 1009.1 |
| 20260507020542 | 46 | 331 | 2.0 | 8.0 | 0.11 | 0.12 | 0.11 | 88 | 1009.0 |
| 20260507020009 | 46 | 5 | 3.0 | 8.0 | 0.09 | 0.10 | 0.09 | 88 | 1009.0 |
| 20260507015530 | 46 | 319 | 2.0 | 6.0 | 0.08 | 0.21 | 0.08 | 88 | 1009.0 |
| 20260507015048 | 47 | 348 | 2.0 | 5.0 | 0.07 | 0.20 | 0.07 | 88 | 1008.9 |
| 20260507014515 | 47 | 47 | 2.0 | 6.0 | 0.06 | 0.19 | 0.06 | 88 | 1008.8 |
| 20260507014035 | 47 | 28 | 4.0 | 7.0 | 0.05 | 0.18 | 0.05 | 88 | 1008.7 |
| 20260507013555 | 47 | 306 | 2.0 | 6.0 | 0.03 | 0.17 | 0.03 | 88 | 1008.6 |
| 20260507013037 | 47 | 321 | 1.0 | 5.0 | 0.02 | 0.16 | 0.02 | 88 | 1008.7 |
| 20260507012541 | 47 | 18 | 0.0 | 5.0 | 0.02 | 0.15 | 0.02 | 87 | 1008.6 |
| 20260507012102 | 47 | 22 | 2.0 | 5.0 | 0.02 | 0.15 | 0.02 | 87 | 1008.6 |
| 20260507011531 | 47 | 22 | 2.0 | 5.0 | 0.01 | 0.14 | 0.01 | 87 | 1008.6 |
| 20260507011036 | 48 | 23 | 2.0 | 9.0 | 0.00 | 0.13 | 0.00 | 86 | 1008.5 |
| 20260507010556 | 48 | 304 | 2.0 | 9.0 | 0.00 | 0.13 | 0.00 | 86 | 1008.5 |
| 20260507010011 | 48 | 22 | 0.0 | 9.0 | 0.00 | 0.13 | 0.00 | 86 | 1008.4 |
| 20260507005540 | 48 | 21 | 2.0 | 9.0 | 0.00 | 0.40 | 0.00 | 86 | 1008.3 |
| 20260507005057 | 48 | 340 | 3.0 | 7.0 | 0.00 | 0.40 | 0.00 | 85 | 1008.3 |
| 20260507004517 | 48 | 346 | 2.0 | 6.0 | 0.00 | 0.40 | 0.00 | 85 | 1008.3 |
| 20260507004032 | 48 | 13 | 1.0 | 8.0 | 0.00 | 0.40 | 0.00 | 85 | 1008.2 |
| 20260507003554 | 48 | 348 | 3.0 | 8.0 | 0.00 | 0.40 | 0.00 | 85 | 1008.1 |
| 20260507003010 | 49 | 355 | 1.0 | 5.0 | 0.00 | 0.40 | 0.00 | 85 | 1008.2 |
| 20260507002539 | 49 | 19 | 2.0 | 6.0 | 0.00 | 0.40 | 0.00 | 85 | 1008.2 |
| 20260507002100 | 49 | 360 | 1.0 | 6.0 | 0.00 | 0.40 | 0.00 | 85 | 1008.2 |
| 20260507001525 | 48 | 337 | 1.0 | 5.0 | 0.00 | 0.40 | 0.00 | 85 | 1008.3 |
| 20260507001047 | 49 | 24 | 2.0 | 5.0 | 0.00 | 0.40 | 0.00 | 85 | 1008.4 |
| 20260507000516 | 49 | 43 | 2.0 | 6.0 | 0.00 | 0.40 | 0.00 | 85 | 1008.4 |
| 20260507000031 | 49 | 5 | 3.0 | 6.0 | 0.00 | 0.40 | 0.00 | 85 | 1008.3 |
| 20260506235547 | 49 | 70 | 1.0 | 6.0 | 0.00 | 0.43 | 0.00 | 85 | 1008.3 |
| 20260506235005 | 49 | 70 | 3.0 | 7.0 | 0.00 | 0.43 | 0.00 | 85 | 1008.0 |
| 20260506234529 | 49 | 64 | 2.0 | 7.0 | 0.00 | 0.43 | 0.00 | 84 | 1008.0 |
| 20260506234052 | 49 | 12 | 0.0 | 7.0 | 0.00 | 0.43 | 0.00 | 84 | 1007.9 |
| 20260506233506 | 49 | 325 | 2.0 | 9.0 | 0.00 | 0.43 | 0.00 | 84 | 1007.8 |
| 20260506233026 | 49 | 16 | 2.0 | 9.0 | 0.00 | 0.43 | 0.00 | 84 | 1007.9 |
| 20260506232545 | 49 | 46 | 1.0 | 8.0 | 0.00 | 0.43 | 0.00 | 84 | 1008.1 |
| 20260506232002 | 49 | 30 | 2.0 | 8.0 | 0.00 | 0.43 | 0.00 | 84 | 1008.1 |
| 20260506231530 | 49 | 11 | 2.0 | 6.0 | 0.00 | 0.43 | 0.00 | 84 | 1008.1 |
| 20260506231049 | 49 | 23 | 1.0 | 5.0 | 0.00 | 0.43 | 0.00 | 84 | 1008.2 |
| 20260506230505 | 49 | 5 | 1.0 | 5.0 | 0.00 | 0.43 | 0.00 | 84 | 1008.1 |
| 20260506230025 | 49 | 26 | 1.0 | 6.0 | 0.00 | 0.43 | 0.00 | 84 | 1008.1 |
| 20260506225545 | 50 | 11 | 2.0 | 6.0 | 0.00 | 0.48 | 0.00 | 84 | 1008.0 |
| 20260506225002 | 50 | 24 | 1.0 | 5.0 | 0.00 | 0.48 | 0.00 | 84 | 1007.9 |
| 20260506224533 | 50 | 24 | 1.0 | 8.0 | 0.00 | 0.48 | 0.00 | 84 | 1007.9 |
| 20260506224052 | 50 | 31 | 2.0 | 8.0 | 0.00 | 0.48 | 0.00 | 84 | 1007.9 |
| 20260506223520 | 50 | 26 | 2.0 | 9.0 | 0.00 | 0.48 | 0.00 | 84 | 1007.8 |
| 20260506223047 | 50 | 46 | 2.0 | 9.0 | 0.00 | 0.48 | 0.00 | 84 | 1007.8 |
| 20260506222506 | 50 | 61 | 3.0 | 9.0 | 0.00 | 0.48 | 0.00 | 83 | 1007.8 |
| 20260506222024 | 50 | 67 | 4.0 | 9.0 | 0.00 | 0.48 | 0.00 | 83 | 1007.7 |
| 20260506221552 | 50 | 27 | 3.0 | 7.0 | 0.00 | 0.48 | 0.00 | 83 | 1007.9 |
| 20260506221012 | 50 | 60 | 3.0 | 9.0 | 0.00 | 0.48 | 0.00 | 83 | 1007.8 |
| 20260506220538 | 50 | 40 | 3.0 | 6.0 | 0.00 | 0.48 | 0.00 | 83 | 1007.8 |
| 20260506220057 | 50 | 38 | 3.0 | 9.0 | 0.00 | 0.48 | 0.00 | 83 | 1007.8 |
| 20260506215522 | 51 | 12 | 3.0 | 9.0 | 0.00 | 0.48 | 0.48 | 83 | 1007.8 |
| 20260506215039 | 51 | 49 | 4.0 | 10.0 | 0.00 | 0.48 | 0.48 | 83 | 1007.8 |
| 20260506214609 | 51 | 52 | 3.0 | 9.0 | 0.00 | 0.48 | 0.48 | 82 | 1007.6 |
| 20260506214023 | 51 | 46 | 2.0 | 8.0 | 0.00 | 0.48 | 0.48 | 83 | 1007.6 |
| 20260506213545 | 51 | 31 | 2.0 | 8.0 | 0.00 | 0.48 | 0.48 | 83 | 1007.7 |
| 20260506213012 | 51 | 80 | 1.0 | 8.0 | 0.00 | 0.48 | 0.48 | 83 | 1007.7 |
| 20260506212529 | 51 | 53 | 1.0 | 8.0 | 0.00 | 0.48 | 0.48 | 82 | 1007.6 |
| 20260506212051 | 51 | 30 | 2.0 | 8.0 | 0.00 | 0.48 | 0.48 | 82 | 1007.5 |
| 20260506211506 | 51 | 5 | 3.0 | 8.0 | 0.00 | 0.48 | 0.48 | 82 | 1007.5 |
| 20260506211024 | 51 | 44 | 2.0 | 8.0 | 0.00 | 0.48 | 0.48 | 82 | 1007.5 |
| 20260506210543 | 51 | 30 | 2.0 | 9.0 | 0.00 | 0.48 | 0.48 | 82 | 1007.6 |
| 20260506210128 | 52 | 60 | 3.0 | 9.0 | 0.00 | 0.48 | 0.48 | 81 | 1007.5 |
| 20260506205517 | 52 | 360 | 3.0 | 8.0 | 0.00 | 0.48 | 0.48 | 81 | 1007.6 |
| 20260506205036 | 52 | 71 | 3.0 | 8.0 | 0.00 | 0.48 | 0.48 | 81 | 1007.5 |
| 20260506204556 | 52 | 336 | 2.0 | 9.0 | 0.00 | 0.48 | 0.48 | 81 | 1007.3 |
| 20260506204013 | 52 | 350 | 2.0 | 9.0 | 0.00 | 0.48 | 0.48 | 81 | 1007.4 |
| 20260506203529 | 52 | 43 | 2.0 | 9.0 | 0.00 | 0.48 | 0.48 | 81 | 1007.3 |
| 20260506203050 | 52 | 31 | 1.0 | 9.0 | 0.00 | 0.48 | 0.48 | 81 | 1007.2 |
| 20260506202506 | 53 | 349 | 3.0 | 6.0 | 0.00 | 0.48 | 0.48 | 82 | 1007.3 |
| 20260506202024 | 53 | 360 | 2.0 | 9.0 | 0.00 | 0.48 | 0.48 | 81 | 1007.1 |
| 20260506201543 | 53 | 49 | 2.0 | 7.0 | 0.00 | 0.48 | 0.48 | 81 | 1007.1 |
| 20260506201010 | 53 | 22 | 1.0 | 6.0 | 0.00 | 0.48 | 0.48 | 81 | 1007.1 |
| 20260506200525 | 53 | 10 | 1.0 | 6.0 | 0.00 | 0.48 | 0.48 | 81 | 1007.2 |
| 20260506200117 | 53 | 71 | 1.0 | 5.0 | 0.00 | 0.48 | 0.48 | 81 | 1007.2 |
| 20260506195501 | 53 | 5 | 1.0 | 5.0 | 0.00 | 0.48 | 0.48 | 81 | 1007.2 |
| 20260506195030 | 53 | 346 | 0.0 | 4.0 | 0.00 | 0.48 | 0.48 | 81 | 1007.2 |
| 20260506194550 | 53 | 344 | 1.0 | 4.0 | 0.00 | 0.48 | 0.48 | 81 | 1007.1 |
| 20260506194016 | 53 | 5 | 1.0 | 6.0 | 0.00 | 0.48 | 0.48 | 80 | 1007.1 |
| 20260506193538 | 53 | 360 | 0.0 | 8.0 | 0.00 | 0.48 | 0.48 | 80 | 1007.0 |
| 20260506193054 | 53 | 28 | 2.0 | 9.0 | 0.00 | 0.48 | 0.48 | 80 | 1007.0 |
| 20260506192513 | 54 | 342 | 1.0 | 9.0 | 0.00 | 0.48 | 0.48 | 79 | 1006.9 |
| 20260506192039 | 54 | 349 | 4.0 | 9.0 | 0.00 | 0.48 | 0.48 | 79 | 1007.0 |
| 20260506191600 | 54 | 323 | 3.0 | 10.0 | 0.00 | 0.48 | 0.48 | 79 | 1006.9 |
| 20260506191024 | 54 | 13 | 2.0 | 10.0 | 0.00 | 0.48 | 0.48 | 79 | 1006.9 |
| 20260506190542 | 54 | 327 | 2.0 | 10.0 | 0.00 | 0.48 | 0.48 | 79 | 1006.9 |
| 20260506190008 | 54 | 322 | 2.0 | 6.0 | 0.00 | 0.48 | 0.48 | 79 | 1006.9 |
| 20260506185531 | 54 | 5 | 1.0 | 6.0 | 0.00 | 0.48 | 0.48 | 78 | 1006.8 |
| 20260506185051 | 55 | 355 | 0.0 | 10.0 | 0.00 | 0.48 | 0.48 | 78 | 1006.9 |
| 20260506184518 | 55 | 320 | 2.0 | 12.0 | 0.00 | 0.48 | 0.48 | 78 | 1006.7 |
| 20260506184036 | 55 | 38 | 2.0 | 12.0 | 0.00 | 0.48 | 0.48 | 77 | 1006.6 |
| 20260506183554 | 55 | 327 | 2.0 | 10.0 | 0.00 | 0.48 | 0.48 | 77 | 1006.5 |
| 20260506183009 | 56 | 342 | 4.0 | 10.0 | 0.00 | 0.48 | 0.48 | 77 | 1006.4 |
| 20260506182532 | 56 | 9 | 2.0 | 11.0 | 0.00 | 0.48 | 0.48 | 76 | 1006.5 |
| 20260506182050 | 56 | 339 | 4.0 | 11.0 | 0.00 | 0.48 | 0.48 | 76 | 1006.5 |
| 20260506181519 | 57 | 34 | 3.0 | 10.0 | 0.00 | 0.48 | 0.48 | 76 | 1006.4 |
| 20260506181035 | 57 | 18 | 2.0 | 9.0 | 0.00 | 0.48 | 0.48 | 75 | 1006.3 |
| 20260506180554 | 57 | 360 | 2.0 | 8.0 | 0.00 | 0.48 | 0.48 | 75 | 1006.3 |
| 20260506180016 | 57 | 11 | 4.0 | 9.0 | 0.00 | 0.48 | 0.48 | 75 | 1006.2 |
| 20260506175530 | 58 | 329 | 2.0 | 9.0 | 0.00 | 0.48 | 0.48 | 75 | 1006.2 |
| 20260506175048 | 58 | 340 | 2.0 | 8.0 | 0.00 | 0.48 | 0.48 | 75 | 1006.1 |
| 20260506174503 | 58 | 336 | 3.0 | 8.0 | 0.00 | 0.48 | 0.48 | 75 | 1006.2 |
| 20260506174022 | 58 | 312 | 2.0 | 13.0 | 0.00 | 0.48 | 0.48 | 75 | 1006.3 |
| 20260506173550 | 58 | 11 | 4.0 | 15.0 | 0.00 | 0.48 | 0.48 | 74 | 1006.2 |
| 20260506173007 | 58 | 344 | 7.0 | 15.0 | 0.00 | 0.48 | 0.48 | 74 | 1006.1 |
| 20260506172534 | 59 | 310 | 3.0 | 13.0 | 0.00 | 0.48 | 0.48 | 74 | 1006.1 |
| 20260506172054 | 59 | 360 | 6.0 | 13.0 | 0.00 | 0.48 | 0.48 | 74 | 1006.1 |
| 20260506171535 | 59 | 344 | 4.0 | 13.0 | 0.00 | 0.48 | 0.48 | 74 | 1006.1 |
| 20260506171034 | 59 | 337 | 7.0 | 11.0 | 0.00 | 0.48 | 0.48 | 74 | 1006.0 |
| 20260506170552 | 59 | 346 | 4.0 | 10.0 | 0.00 | 0.48 | 0.48 | 74 | 1006.0 |
| 20260506170019 | 60 | 345 | 3.0 | 9.0 | 0.00 | 0.48 | 0.48 | 74 | 1006.0 |
| 20260506165536 | 60 | 11 | 1.0 | 12.0 | 0.00 | 0.48 | 0.48 | 74 | 1006.0 |
| 20260506165056 | 60 | 329 | 6.0 | 12.0 | 0.00 | 0.48 | 0.48 | 74 | 1005.9 |
| 20260506164513 | 60 | 360 | 3.0 | 11.0 | 0.00 | 0.48 | 0.48 | 74 | 1006.0 |
| 20260506164041 | 60 | 336 | 5.0 | 12.0 | 0.00 | 0.48 | 0.48 | 74 | 1006.0 |
| 20260506163600 | 60 | 346 | 6.0 | 12.0 | 0.00 | 0.48 | 0.48 | 73 | 1005.9 |
| 20260506163027 | 60 | 340 | 5.0 | 14.0 | 0.00 | 0.48 | 0.48 | 73 | 1006.0 |
| 20260506162537 | 61 | 351 | 7.0 | 14.0 | 0.00 | 0.48 | 0.48 | 73 | 1005.9 |
| 20260506162055 | 61 | 331 | 5.0 | 11.0 | 0.00 | 0.48 | 0.48 | 72 | 1005.8 |
| 20260506161524 | 62 | 350 | 5.0 | 11.0 | 0.00 | 0.48 | 0.48 | 72 | 1005.7 |
| 20260506161034 | 62 | 328 | 3.0 | 17.0 | 0.00 | 0.48 | 0.48 | 72 | 1005.8 |
| 20260506160545 | 62 | 15 | 6.0 | 17.0 | 0.00 | 0.48 | 0.48 | 72 | 1005.8 |
| 20260506160109 | 63 | 276 | 5.0 | 12.0 | 0.00 | 0.48 | 0.48 | 71 | 1005.9 |
| 20260506155526 | 63 | 355 | 3.0 | 11.0 | 0.00 | 0.48 | 0.48 | 70 | 1005.9 |
| 20260506155043 | 64 | 360 | 5.0 | 13.0 | 0.00 | 0.48 | 0.48 | 69 | 1005.8 |
| 20260506154510 | 64 | 338 | 7.0 | 13.0 | 0.00 | 0.48 | 0.48 | 68 | 1005.9 |
| 20260506154029 | 65 | 302 | 3.0 | 10.0 | 0.00 | 0.48 | 0.48 | 68 | 1005.9 |
| 20260506153548 | 65 | 338 | 4.0 | 12.0 | 0.00 | 0.48 | 0.48 | 67 | 1005.8 |
| 20260506153005 | 65 | 360 | 5.0 | 10.0 | 0.00 | 0.48 | 0.48 | 67 | 1005.8 |
| 20260506152530 | 66 | 355 | 2.0 | 10.0 | 0.00 | 0.48 | 0.48 | 67 | 1005.8 |
| 20260506152049 | 66 | 333 | 4.0 | 10.0 | 0.00 | 0.48 | 0.48 | 66 | 1005.8 |
| 20260506151506 | 66 | 355 | 5.0 | 10.0 | 0.00 | 0.48 | 0.48 | 65 | 1005.8 |
| 20260506151025 | 66 | 287 | 2.0 | 11.0 | 0.00 | 0.48 | 0.48 | 65 | 1005.8 |
| 20260506150545 | 67 | 5 | 5.0 | 11.0 | 0.00 | 0.48 | 0.48 | 66 | 1005.7 |
| 20260506150005 | 67 | 338 | 4.0 | 10.0 | 0.00 | 0.48 | 0.48 | 66 | 1005.7 |
| 20260506145529 | 66 | 345 | 2.0 | 9.0 | 0.00 | 0.48 | 0.48 | 66 | 1005.8 |
| 20260506145049 | 66 | 5 | 2.0 | 9.0 | 0.00 | 0.48 | 0.48 | 65 | 1005.8 |
| 20260506144507 | 66 | 330 | 3.0 | 12.0 | 0.00 | 0.48 | 0.48 | 64 | 1005.8 |
| 20260506144028 | 67 | 263 | 5.0 | 12.0 | 0.00 | 0.48 | 0.48 | 63 | 1005.8 |
| 20260506143546 | 67 | 286 | 4.0 | 12.0 | 0.00 | 0.48 | 0.48 | 63 | 1005.8 |
| 20260506143003 | 67 | 340 | 3.0 | 12.0 | 0.00 | 0.48 | 0.48 | 63 | 1005.7 |
| 20260506142521 | 67 | 308 | 4.0 | 12.0 | 0.00 | 0.48 | 0.48 | 63 | 1005.7 |
| 20260506142041 | 67 | 284 | 4.0 | 12.0 | 0.00 | 0.48 | 0.48 | 63 | 1005.6 |
| 20260506141600 | 68 | 344 | 4.0 | 9.0 | 0.00 | 0.48 | 0.48 | 63 | 1005.7 |
| 20260506141022 | 68 | 333 | 1.0 | 13.0 | 0.00 | 0.48 | 0.48 | 62 | 1005.6 |
| 20260506140541 | 69 | 240 | 7.0 | 12.0 | 0.00 | 0.48 | 0.48 | 61 | 1005.7 |
| 20260506140007 | 68 | 9 | 5.0 | 14.0 | 0.00 | 0.48 | 0.48 | 60 | 1005.7 |
| 20260506135530 | 68 | 234 | 7.0 | 14.0 | 0.00 | 0.48 | 0.48 | 61 | 1005.6 |
| 20260506135044 | 67 | 231 | 6.0 | 14.0 | 0.00 | 0.48 | 0.48 | 62 | 1005.7 |
| 20260506134503 | 67 | 256 | 6.0 | 15.0 | 0.00 | 0.48 | 0.48 | 61 | 1005.7 |
| 20260506134030 | 67 | 271 | 10.0 | 15.0 | 0.00 | 0.48 | 0.48 | 62 | 1005.8 |
| 20260506133548 | 68 | 271 | 7.0 | 12.0 | 0.00 | 0.48 | 0.48 | 62 | 1005.8 |
| 20260506133002 | 68 | 258 | 7.0 | 14.0 | 0.00 | 0.48 | 0.48 | 60 | 1005.7 |
| 20260506132520 | 69 | 244 | 7.0 | 12.0 | 0.00 | 0.48 | 0.48 | 61 | 1005.7 |
| 20260506132048 | 68 | 207 | 3.0 | 12.0 | 0.00 | 0.48 | 0.48 | 62 | 1005.7 |
| 20260506131505 | 68 | 316 | 7.0 | 13.0 | 0.00 | 0.48 | 0.48 | 63 | 1005.7 |
| 20260506131035 | 68 | 240 | 6.0 | 13.0 | 0.00 | 0.48 | 0.48 | 62 | 1005.8 |
| 20260506130552 | 68 | 248 | 7.0 | 15.0 | 0.00 | 0.48 | 0.48 | 60 | 1005.7 |
| 20260506130019 | 68 | 299 | 7.0 | 15.0 | 0.00 | 0.48 | 0.48 | 61 | 1005.7 |
| 20260506125536 | 68 | 263 | 7.0 | 17.0 | 0.00 | 0.48 | 0.48 | 62 | 1005.7 |
| 20260506125055 | 68 | 297 | 11.0 | 17.0 | 0.00 | 0.48 | 0.48 | 61 | 1005.6 |
| 20260506124516 | 67 | 298 | 8.0 | 15.0 | 0.00 | 0.48 | 0.48 | 58 | 1005.7 |
| 20260506124041 | 67 | 206 | 7.0 | 17.0 | 0.00 | 0.48 | 0.48 | 59 | 1005.6 |
| 20260506123601 | 67 | 257 | 10.0 | 17.0 | 0.00 | 0.48 | 0.48 | 58 | 1005.6 |
| 20260506123013 | 67 | 267 | 9.0 | 15.0 | 0.00 | 0.48 | 0.48 | 59 | 1005.7 |
| 20260506122539 | 67 | 229 | 8.0 | 14.0 | 0.00 | 0.48 | 0.48 | 60 | 1005.6 |
| 20260506122057 | 67 | 187 | 6.0 | 17.0 | 0.00 | 0.48 | 0.48 | 59 | 1005.6 |
| 20260506121522 | 67 | 244 | 8.0 | 17.0 | 0.00 | 0.48 | 0.48 | 60 | 1005.6 |
| 20260506121042 | 66 | 269 | 8.0 | 16.0 | 0.00 | 0.48 | 0.48 | 61 | 1005.6 |
| 20260506120506 | 66 | 259 | 11.0 | 17.0 | 0.00 | 0.48 | 0.48 | 61 | 1005.5 |
| 20260506120025 | 66 | 271 | 11.0 | 17.0 | 0.01 | 0.48 | 0.48 | 62 | 1005.4 |
| 20260506115544 | 66 | 261 | 11.0 | 17.0 | 0.01 | 0.48 | 0.48 | 62 | 1005.3 |